createdAt,value
2023-02-19T00:00:24.021Z,9.52
2023-02-19T00:02:52.046Z,11.23
2023-02-19T00:05:18.772Z,8.48
2023-02-19T00:07:45.474Z,9.40
2023-02-19T00:10:12.145Z,9.25
2023-02-19T00:12:38.830Z,9.18
2023-02-19T00:15:06.005Z,9.88
2023-02-19T00:17:32.825Z,11.40
2023-02-19T00:20:01.112Z,9.43
2023-02-19T00:22:27.766Z,9.00
2023-02-19T00:24:54.483Z,11.55
2023-02-19T00:27:21.151Z,11.23
2023-02-19T00:29:47.880Z,9.68
2023-02-19T00:32:14.609Z,9.70
2023-02-19T00:34:41.375Z,9.50
2023-02-19T00:37:09.485Z,11.45
2023-02-19T00:39:36.150Z,10.45
2023-02-19T00:42:02.879Z,10.40
2023-02-19T00:44:29.652Z,10.32
2023-02-19T00:46:56.305Z,11.85
2023-02-19T00:49:23.869Z,12.18
2023-02-19T00:51:52.095Z,11.63
2023-02-19T00:54:20.504Z,14.82
2023-02-19T00:56:47.286Z,10.07
2023-02-19T00:59:14.345Z,11.15
2023-02-19T01:01:41.319Z,10.93
2023-02-19T01:04:08.038Z,10.10
2023-02-19T01:06:34.938Z,10.95
2023-02-19T01:09:01.654Z,10.73
2023-02-19T01:11:29.858Z,10.80
2023-02-19T01:13:58.063Z,9.23
2023-02-19T01:16:25.084Z,9.85
2023-02-19T01:18:51.803Z,11.30
2023-02-19T01:21:20.152Z,11.93
2023-02-19T01:23:47.324Z,10.73
2023-02-19T01:26:16.377Z,10.35
2023-02-19T01:28:56.744Z,13.48
2023-02-19T01:31:25.257Z,10.60
2023-02-19T01:33:54.627Z,12.77
2023-02-19T01:36:22.168Z,10.90
2023-02-19T01:38:48.836Z,13.38
2023-02-19T01:41:17.986Z,11.77
2023-02-19T01:44:00.894Z,10.55
2023-02-19T01:46:28.874Z,11.18
2023-02-19T01:48:59.317Z,11.13
2023-02-19T01:51:26.884Z,10.48
2023-02-19T01:53:58.949Z,12.23
2023-02-19T01:56:27.859Z,16.05
2023-02-19T01:58:54.649Z,11.57
2023-02-19T02:01:22.763Z,12.68
2023-02-19T02:03:49.724Z,14.02
2023-02-19T02:06:22.577Z,10.80
2023-02-19T02:08:51.554Z,9.98
2023-02-19T02:11:19.663Z,13.73
2023-02-19T02:13:46.681Z,12.23
2023-02-19T02:16:27.697Z,14.63
2023-02-19T02:19:01.903Z,11.18
2023-02-19T02:21:57.618Z,11.52
2023-02-19T02:24:50.809Z,10.48
2023-02-19T02:27:35.580Z,11.50
2023-02-19T02:30:27.422Z,13.95
2023-02-19T02:33:00.956Z,11.60
2023-02-19T02:35:31.055Z,12.23
2023-02-19T02:38:02.795Z,14.07
2023-02-19T02:40:30.237Z,11.27
2023-02-19T02:42:57.359Z,12.40
2023-02-19T02:45:31.269Z,10.75
2023-02-19T02:47:58.718Z,11.02
2023-02-19T02:50:29.285Z,11.20
2023-02-19T02:53:01.505Z,9.95
2023-02-19T02:55:31.239Z,15.13
2023-02-19T02:57:57.996Z,12.90
2023-02-19T03:00:27.798Z,11.43
2023-02-19T03:02:56.519Z,10.90
2023-02-19T03:05:25.822Z,11.45
2023-02-19T03:07:56.512Z,11.70
2023-02-19T03:10:26.266Z,11.55
2023-02-19T03:12:57.081Z,10.90
2023-02-19T03:15:27.740Z,10.73
2023-02-19T03:17:59.131Z,10.07
2023-02-19T03:20:27.104Z,10.25
2023-02-19T03:22:56.705Z,9.82
2023-02-19T03:25:26.505Z,10.10
2023-02-19T03:27:55.168Z,10.25
2023-02-19T03:30:25.420Z,9.60
2023-02-19T03:32:55.893Z,10.00
2023-02-19T03:35:25.531Z,9.38
2023-02-19T03:37:59.586Z,9.90
2023-02-19T03:40:29.453Z,11.07
2023-02-19T03:43:03.697Z,10.13
2023-02-19T03:45:37.899Z,10.00
2023-02-19T03:48:23.316Z,9.30
2023-02-19T03:50:55.640Z,8.93
2023-02-19T03:53:27.162Z,9.63
2023-02-19T03:56:05.556Z,9.77
2023-02-19T03:58:39.993Z,10.27
2023-02-19T04:01:10.769Z,8.77
2023-02-19T04:03:46.682Z,8.57
2023-02-19T04:06:16.876Z,8.88
2023-02-19T04:08:47.752Z,8.57
2023-02-19T04:11:15.606Z,9.50
2023-02-19T04:13:46.738Z,10.88
2023-02-19T04:16:18.554Z,9.98
2023-02-19T04:18:49.399Z,9.02
2023-02-19T04:21:17.156Z,10.02
2023-02-19T04:23:45.697Z,7.80
2023-02-19T04:26:14.472Z,8.82
2023-02-19T04:28:41.437Z,7.38
2023-02-19T04:31:08.488Z,9.18
2023-02-19T04:33:35.515Z,9.13
2023-02-19T04:36:03.815Z,7.53
2023-02-19T04:38:30.534Z,8.52
2023-02-19T04:40:57.733Z,7.72
2023-02-19T04:43:24.544Z,8.10
2023-02-19T04:45:51.292Z,7.90
2023-02-19T04:48:18.113Z,8.70
2023-02-19T04:50:44.848Z,7.95
2023-02-19T04:53:13.005Z,8.98
2023-02-19T04:55:39.785Z,7.55
2023-02-19T04:58:06.558Z,7.82
2023-02-19T05:00:33.349Z,7.05
2023-02-19T05:03:00.531Z,7.80
2023-02-19T05:05:27.253Z,7.82
2023-02-19T05:07:54.078Z,6.60
2023-02-19T05:10:22.227Z,6.07
2023-02-19T05:12:48.966Z,7.88
2023-02-19T05:15:15.719Z,6.60
2023-02-19T05:17:42.418Z,8.27
2023-02-19T05:20:09.697Z,7.43
2023-02-19T05:22:36.458Z,7.43
2023-02-19T05:25:03.483Z,8.63
2023-02-19T05:27:32.230Z,8.45
2023-02-19T05:29:59.155Z,8.63
2023-02-19T05:32:25.950Z,7.85
2023-02-19T05:34:52.699Z,7.97
2023-02-19T05:37:19.387Z,7.65
2023-02-19T05:39:46.108Z,9.38
2023-02-19T05:42:14.090Z,7.32
2023-02-19T05:44:42.294Z,7.97
2023-02-19T05:47:09.192Z,7.70
2023-02-19T05:49:35.966Z,6.85
2023-02-19T05:52:02.713Z,7.68
2023-02-19T05:54:30.047Z,7.13
2023-02-19T05:56:56.983Z,6.22
2023-02-19T05:59:25.106Z,5.85
2023-02-19T06:01:54.715Z,5.38
2023-02-19T06:04:21.886Z,6.20
2023-02-19T06:06:49.331Z,7.57
2023-02-19T06:09:16.166Z,6.47
2023-02-19T06:11:43.102Z,5.18
2023-02-19T06:14:11.914Z,5.20
2023-02-19T06:16:38.579Z,4.47
2023-02-19T06:19:06.632Z,5.55
2023-02-19T06:21:33.458Z,5.25
2023-02-19T06:24:04.975Z,6.50
2023-02-19T06:26:31.662Z,4.90
2023-02-19T06:28:58.381Z,5.45
2023-02-19T06:31:25.136Z,5.93
2023-02-19T06:33:51.935Z,5.70
2023-02-19T06:36:21.444Z,5.03
2023-02-19T06:38:48.458Z,5.97
2023-02-19T06:41:15.776Z,4.72
2023-02-19T06:43:42.619Z,4.45
2023-02-19T06:46:11.504Z,3.97
2023-02-19T06:48:39.828Z,4.72
2023-02-19T06:51:06.721Z,4.45
2023-02-19T06:53:34.808Z,5.10
2023-02-19T06:56:03.473Z,4.15
2023-02-19T06:58:30.769Z,3.80
2023-02-19T07:00:57.775Z,4.88
2023-02-19T07:03:24.532Z,3.67
2023-02-19T07:05:51.221Z,3.95
2023-02-19T07:08:18.011Z,3.15
2023-02-19T07:10:46.148Z,4.97
2023-02-19T07:13:12.843Z,3.38
2023-02-19T07:15:39.573Z,5.75
2023-02-19T07:18:06.340Z,4.70
2023-02-19T07:20:33.037Z,4.60
2023-02-19T07:22:59.871Z,3.42
2023-02-19T07:25:26.626Z,4.85
2023-02-19T07:27:54.699Z,4.63
2023-02-19T07:30:21.430Z,4.70
2023-02-19T07:32:48.344Z,3.90
2023-02-19T07:35:15.157Z,4.40
2023-02-19T07:37:41.905Z,4.47
2023-02-19T07:40:09.037Z,4.25
2023-02-19T07:42:35.729Z,4.95
2023-02-19T07:45:04.322Z,4.63
2023-02-19T07:47:31.008Z,6.53
2023-02-19T07:49:57.761Z,5.32
2023-02-19T07:52:24.594Z,5.00
2023-02-19T07:54:51.287Z,4.93
2023-02-19T07:57:17.971Z,3.17
2023-02-19T07:59:44.666Z,4.80
2023-02-19T08:02:16.459Z,4.35
2023-02-19T08:04:43.120Z,4.68
2023-02-19T08:07:09.836Z,4.60
2023-02-19T08:09:36.573Z,4.53
2023-02-19T08:12:03.579Z,6.53
2023-02-19T08:14:30.378Z,4.75
2023-02-19T08:16:57.157Z,5.80
2023-02-19T08:19:25.407Z,6.05
2023-02-19T08:21:52.176Z,5.70
2023-02-19T08:24:18.854Z,4.97
2023-02-19T08:26:45.590Z,4.82
2023-02-19T08:29:12.343Z,4.22
2023-02-19T08:31:39.118Z,5.97
2023-02-19T08:34:05.839Z,5.97
2023-02-19T08:36:33.903Z,8.32
2023-02-19T08:39:00.560Z,8.35
2023-02-19T08:41:27.304Z,7.30
2023-02-19T08:43:54.033Z,7.50
2023-02-19T08:46:20.785Z,6.07
2023-02-19T08:48:47.523Z,6.68
2023-02-19T08:51:14.698Z,6.65
2023-02-19T08:53:43.087Z,5.75
2023-02-19T08:56:11.610Z,6.47
2023-02-19T08:58:38.791Z,5.05
2023-02-19T09:01:09.436Z,4.18
2023-02-19T09:03:36.296Z,4.30
2023-02-19T09:06:03.044Z,4.65
2023-02-19T09:08:29.789Z,7.20
2023-02-19T09:11:02.984Z,4.88
2023-02-19T09:13:29.706Z,5.78
2023-02-19T09:15:56.619Z,4.60
2023-02-19T09:18:23.672Z,5.60
2023-02-19T09:20:50.562Z,5.13
2023-02-19T09:23:17.296Z,5.57
2023-02-19T09:25:43.976Z,5.75
2023-02-19T09:28:12.134Z,6.55
2023-02-19T09:30:38.839Z,5.75
2023-02-19T09:33:05.933Z,7.18
2023-02-19T09:35:32.682Z,5.13
2023-02-19T09:38:00.234Z,5.80
2023-02-19T09:40:27.144Z,4.78
2023-02-19T09:42:53.904Z,6.13
2023-02-19T09:45:25.052Z,5.45
2023-02-19T09:47:55.052Z,7.90
2023-02-19T09:50:36.418Z,8.40
2023-02-19T09:53:08.217Z,4.85
2023-02-19T09:55:36.887Z,5.63
2023-02-19T09:58:14.456Z,6.00
2023-02-19T10:00:43.417Z,4.47
2023-02-19T10:03:14.523Z,5.53
2023-02-19T10:05:41.920Z,6.03
2023-02-19T10:08:15.610Z,5.95
2023-02-19T10:10:44.346Z,5.25
2023-02-19T10:13:18.381Z,5.65
2023-02-19T10:15:49.876Z,5.13
2023-02-19T10:18:18.604Z,6.95
2023-02-19T10:20:46.447Z,8.05
2023-02-19T10:23:15.534Z,8.50
2023-02-19T10:25:46.766Z,10.75
2023-02-19T10:28:16.820Z,8.45
2023-02-19T10:30:44.129Z,6.85
2023-02-19T10:33:14.500Z,7.45
2023-02-19T10:35:54.052Z,5.63
2023-02-19T10:38:23.901Z,6.10
2023-02-19T10:40:56.595Z,6.68
2023-02-19T10:43:26.731Z,6.60
2023-02-19T10:45:53.523Z,7.22
2023-02-19T10:48:24.800Z,8.15
2023-02-19T10:50:53.397Z,6.47
2023-02-19T10:53:22.156Z,6.68
2023-02-19T10:55:48.855Z,6.05
2023-02-19T10:58:23.359Z,8.55
2023-02-19T11:01:10.177Z,5.63
2023-02-19T11:03:38.433Z,5.38
2023-02-19T11:06:07.348Z,4.75
2023-02-19T11:08:46.816Z,3.10
2023-02-19T11:11:24.671Z,3.58
2023-02-19T11:13:51.822Z,3.85
2023-02-19T11:16:18.612Z,3.58
2023-02-19T11:18:56.845Z,3.75
2023-02-19T11:21:27.091Z,4.75
2023-02-19T11:23:55.157Z,4.28
2023-02-19T11:26:26.833Z,3.35
2023-02-19T11:28:57.299Z,4.60
2023-02-19T11:31:26.101Z,4.13
2023-02-19T11:33:57.068Z,4.68
2023-02-19T11:36:34.214Z,4.45
2023-02-19T11:39:23.568Z,3.92
2023-02-19T11:42:29.596Z,4.80
2023-02-19T11:45:20.080Z,5.90
2023-02-19T11:48:11.856Z,6.28
2023-02-19T11:50:51.971Z,4.20
2023-02-19T11:53:25.531Z,4.18
2023-02-19T11:56:02.922Z,3.53
2023-02-19T11:58:45.311Z,5.00
2023-02-19T12:01:20.685Z,4.03
2023-02-19T12:04:05.564Z,4.43
2023-02-19T12:06:40.101Z,4.40
2023-02-19T12:09:17.684Z,5.43
2023-02-19T12:11:55.105Z,4.10
2023-02-19T12:14:58.664Z,3.95
2023-02-19T12:17:47.847Z,6.50
2023-02-19T12:20:25.318Z,4.03
2023-02-19T12:23:04.125Z,3.22
2023-02-19T12:25:52.686Z,6.57
2023-02-19T12:28:47.409Z,5.85
2023-02-19T12:31:45.155Z,3.47
2023-02-19T12:34:26.442Z,3.90
2023-02-19T12:37:04.392Z,5.03
2023-02-19T12:39:40.486Z,3.75
2023-02-19T12:42:15.268Z,6.05
2023-02-19T12:44:46.543Z,4.80
2023-02-19T12:47:17.765Z,6.65
2023-02-19T12:49:50.506Z,6.40
2023-02-19T12:52:22.183Z,5.13
2023-02-19T12:54:55.817Z,4.68
2023-02-19T12:57:26.984Z,14.32
2023-02-19T12:59:58.792Z,7.45
2023-02-19T13:02:29.696Z,5.82
2023-02-19T13:05:01.473Z,6.50
2023-02-19T13:07:32.741Z,5.85
2023-02-19T13:10:13.901Z,9.15
2023-02-19T13:12:45.564Z,6.00
2023-02-19T13:15:17.299Z,6.30
2023-02-19T13:17:47.350Z,6.63
2023-02-19T13:20:18.325Z,4.95
2023-02-19T13:22:51.862Z,5.50
2023-02-19T13:25:21.311Z,7.53
2023-02-19T13:28:13.059Z,6.32
2023-02-19T13:31:00.076Z,6.85
2023-02-19T13:33:47.122Z,4.57
2023-02-19T13:36:18.606Z,7.22
2023-02-19T13:38:47.979Z,6.10
2023-02-19T13:41:31.699Z,5.43
2023-02-19T13:44:01.957Z,4.50
2023-02-19T13:46:38.587Z,5.43
2023-02-19T13:49:24.300Z,4.32
2023-02-19T13:51:52.155Z,6.07
2023-02-19T13:54:25.593Z,3.25
2023-02-19T13:57:30.276Z,5.40
2023-02-19T13:59:57.548Z,4.38
2023-02-19T14:02:31.167Z,5.75
2023-02-19T14:05:00.167Z,5.15
2023-02-19T14:07:52.221Z,5.07
2023-02-19T14:10:58.243Z,4.95
2023-02-19T14:14:00.894Z,3.85
2023-02-19T14:16:51.477Z,4.47
2023-02-19T14:19:52.431Z,4.75
2023-02-19T14:23:04.580Z,3.83
2023-02-19T14:25:42.236Z,5.65
2023-02-19T14:28:19.019Z,5.45
2023-02-19T14:30:50.883Z,7.38
2023-02-19T14:33:20.995Z,5.07
2023-02-19T14:35:52.353Z,4.97
2023-02-19T14:38:23.530Z,6.00
2023-02-19T14:40:51.168Z,6.55
2023-02-19T14:43:19.732Z,6.30
2023-02-19T14:45:51.335Z,5.60
2023-02-19T14:48:21.861Z,5.30
2023-02-19T14:50:52.167Z,4.88
2023-02-19T14:53:22.344Z,5.50
2023-02-19T14:55:50.715Z,6.70
2023-02-19T14:58:24.312Z,7.88
2023-02-19T15:00:52.455Z,4.97
2023-02-19T15:03:28.130Z,5.45
2023-02-19T15:05:57.282Z,8.25
2023-02-19T15:08:31.077Z,6.15
2023-02-19T15:10:58.095Z,6.55
2023-02-19T15:13:27.411Z,6.55
2023-02-19T15:15:55.737Z,5.85
2023-02-19T15:18:24.677Z,6.13
2023-02-19T15:20:58.055Z,6.53
2023-02-19T15:23:26.617Z,8.40
2023-02-19T15:25:53.536Z,8.75
2023-02-19T15:28:28.221Z,6.63
2023-02-19T15:31:13.512Z,9.15
2023-02-19T15:33:48.292Z,6.68
2023-02-19T15:36:20.613Z,7.55
2023-02-19T15:38:53.366Z,7.30
2023-02-19T15:41:22.244Z,8.20
2023-02-19T15:43:52.670Z,9.55
2023-02-19T15:46:22.230Z,8.63
2023-02-19T15:48:56.112Z,8.60
2023-02-19T15:51:27.093Z,6.63
2023-02-19T15:54:02.810Z,6.57
2023-02-19T15:56:31.896Z,6.20
2023-02-19T15:59:03.071Z,9.63
2023-02-19T16:01:34.231Z,9.55
2023-02-19T16:04:01.287Z,7.63
2023-02-19T16:06:28.806Z,7.88
2023-02-19T16:09:02.862Z,7.78
2023-02-19T16:11:36.058Z,8.38
2023-02-19T16:14:28.488Z,8.73
2023-02-19T16:16:58.567Z,7.32
2023-02-19T16:19:28.610Z,8.57
2023-02-19T16:21:56.184Z,7.05
2023-02-19T16:24:27.732Z,7.97
2023-02-19T16:26:56.134Z,8.27
2023-02-19T16:29:25.257Z,7.75
2023-02-19T16:31:54.751Z,9.60
2023-02-19T16:34:31.300Z,7.28
2023-02-19T16:36:57.987Z,6.07
2023-02-19T16:39:24.764Z,7.97
2023-02-19T16:42:18.536Z,7.30
2023-02-19T16:44:46.820Z,9.98
2023-02-19T16:47:34.661Z,7.55
2023-02-19T16:50:11.827Z,8.70
2023-02-19T16:52:50.480Z,7.78
2023-02-19T16:55:17.451Z,6.93
2023-02-19T16:57:44.197Z,5.25
2023-02-19T17:00:16.811Z,6.85
2023-02-19T17:02:43.632Z,5.20
2023-02-19T17:05:11.810Z,3.65
2023-02-19T17:07:38.509Z,3.13
2023-02-19T17:10:06.041Z,4.10
2023-02-19T17:12:32.742Z,3.45
2023-02-19T17:14:59.504Z,4.25
2023-02-19T17:17:26.183Z,4.68
2023-02-19T17:19:52.871Z,4.18
2023-02-19T17:22:20.892Z,4.03
2023-02-19T17:24:47.659Z,4.15
2023-02-19T17:27:14.450Z,4.78
2023-02-19T17:29:41.279Z,4.13
2023-02-19T17:32:08.289Z,4.47
2023-02-19T17:34:35.035Z,5.38
2023-02-19T17:37:01.753Z,5.50
2023-02-19T17:39:29.873Z,4.30
2023-02-19T17:41:56.586Z,4.45
2023-02-19T17:44:23.330Z,5.40
2023-02-19T17:46:50.072Z,3.40
2023-02-19T17:49:16.746Z,3.42
2023-02-19T17:51:43.432Z,3.92
2023-02-19T17:54:10.165Z,3.15
2023-02-19T17:56:38.246Z,3.35
2023-02-19T17:59:05.003Z,3.50
2023-02-19T18:01:31.754Z,4.53
2023-02-19T18:03:58.622Z,3.88
2023-02-19T18:06:25.452Z,6.72
2023-02-19T18:08:53.315Z,9.10
2023-02-19T18:11:21.191Z,8.48
2023-02-19T18:13:50.002Z,8.07
2023-02-19T18:16:16.817Z,6.22
2023-02-19T18:18:43.868Z,8.57
2023-02-19T18:21:12.659Z,8.15
2023-02-19T18:23:39.826Z,6.72
2023-02-19T18:26:07.860Z,6.07
2023-02-19T18:28:35.112Z,5.55
2023-02-19T18:31:03.629Z,6.65
2023-02-19T18:33:30.392Z,8.73
2023-02-19T18:35:57.157Z,8.63
2023-02-19T18:38:23.878Z,8.93
2023-02-19T18:40:50.558Z,10.88
2023-02-19T18:43:17.275Z,8.73
2023-02-19T18:45:44.049Z,10.18
2023-02-19T18:48:12.499Z,10.73
2023-02-19T18:50:39.277Z,11.88
2023-02-19T18:53:06.083Z,12.13
2023-02-19T18:55:32.728Z,12.25
2023-02-19T18:57:59.430Z,12.02
2023-02-19T19:00:26.543Z,10.20
2023-02-19T19:02:57.362Z,11.57
2023-02-19T19:05:26.408Z,12.00
2023-02-19T19:07:53.373Z,10.25
2023-02-19T19:10:20.730Z,11.25
2023-02-19T19:12:47.930Z,13.50
2023-02-19T19:15:18.074Z,15.45
2023-02-19T19:17:45.147Z,14.18
2023-02-19T19:20:12.193Z,12.80
2023-02-19T19:22:40.274Z,12.60
2023-02-19T19:25:07.941Z,13.60
2023-02-19T19:27:34.753Z,13.07
2023-02-19T19:30:01.625Z,12.40
2023-02-19T19:32:28.513Z,15.23
2023-02-19T19:34:55.361Z,14.60
2023-02-19T19:37:22.152Z,15.65
2023-02-19T19:39:50.555Z,14.35
2023-02-19T19:42:17.251Z,14.32
2023-02-19T19:44:44.490Z,12.98
2023-02-19T19:47:11.281Z,18.17
2023-02-19T19:49:37.937Z,11.43
2023-02-19T19:52:04.733Z,12.40
2023-02-19T19:54:31.398Z,10.45
2023-02-19T19:56:59.711Z,11.85
2023-02-19T19:59:26.389Z,10.90
2023-02-19T20:01:54.503Z,13.05
2023-02-19T20:04:23.801Z,11.63
2023-02-19T20:06:51.226Z,13.25
2023-02-19T20:09:18.383Z,12.55
2023-02-19T20:11:46.472Z,12.40
2023-02-19T20:14:15.190Z,11.02
2023-02-19T20:16:44.405Z,12.90
2023-02-19T20:19:11.502Z,12.43
2023-02-19T20:21:38.314Z,12.20
2023-02-19T20:24:05.573Z,11.27
2023-02-19T20:26:32.509Z,10.75
2023-02-19T20:28:59.348Z,9.77
2023-02-19T20:31:27.704Z,18.35
2023-02-19T20:33:54.513Z,9.45
2023-02-19T20:36:21.251Z,10.30
2023-02-19T20:38:49.730Z,10.00
2023-02-19T20:41:16.575Z,11.07
2023-02-19T20:43:43.260Z,12.23
2023-02-19T20:46:10.263Z,14.20
2023-02-19T20:48:38.883Z,17.17
2023-02-19T20:51:05.795Z,24.02
2023-02-19T20:53:32.596Z,14.07
2023-02-19T20:55:59.472Z,12.02
2023-02-19T20:58:26.223Z,9.35
2023-02-19T21:00:52.995Z,9.20
2023-02-19T21:03:19.997Z,11.50
2023-02-19T21:05:48.462Z,12.13
2023-02-19T21:08:15.197Z,10.35
2023-02-19T21:10:42.002Z,9.63
2023-02-19T21:13:08.707Z,13.55
2023-02-19T21:15:35.526Z,11.80
2023-02-19T21:18:02.322Z,11.60
2023-02-19T21:20:28.993Z,9.40
2023-02-19T21:22:57.154Z,10.32
2023-02-19T21:25:23.956Z,9.30
2023-02-19T21:27:50.706Z,10.45
2023-02-19T21:30:17.821Z,11.40
2023-02-19T21:32:44.585Z,12.43
2023-02-19T21:35:11.263Z,14.60
2023-02-19T21:37:41.682Z,11.93
2023-02-19T21:40:11.375Z,13.00
2023-02-19T21:42:38.136Z,11.07
2023-02-19T21:45:05.672Z,11.90
2023-02-19T21:47:32.460Z,17.27
2023-02-19T21:49:59.252Z,14.13
2023-02-19T21:52:25.999Z,15.13
2023-02-19T21:54:53.043Z,19.25
2023-02-19T21:57:21.191Z,15.70
2023-02-19T21:59:47.937Z,14.07
2023-02-19T22:02:14.889Z,10.57
2023-02-19T22:04:41.628Z,11.65
2023-02-19T22:07:08.324Z,11.38
2023-02-19T22:09:35.174Z,10.75
2023-02-19T22:12:01.848Z,12.05
2023-02-19T22:14:29.958Z,11.60
2023-02-19T22:16:59.560Z,10.52
2023-02-19T22:19:26.240Z,16.63
2023-02-19T22:21:52.990Z,13.80
2023-02-19T22:24:21.468Z,12.85
2023-02-19T22:26:48.492Z,12.98
2023-02-19T22:29:15.763Z,16.23
2023-02-19T22:31:43.920Z,17.10
2023-02-19T22:34:10.764Z,13.82
2023-02-19T22:36:37.482Z,13.27
2023-02-19T22:39:05.308Z,12.02
2023-02-19T22:41:32.036Z,9.77
2023-02-19T22:43:59.107Z,10.18
2023-02-19T22:46:28.060Z,9.95
2023-02-19T22:48:56.244Z,7.60
2023-02-19T22:51:24.282Z,7.38
2023-02-19T22:53:53.978Z,8.43
2023-02-19T22:56:21.999Z,9.20
2023-02-19T22:58:48.983Z,11.63
2023-02-19T23:01:15.824Z,13.88
2023-02-19T23:03:47.478Z,12.15
2023-02-19T23:06:16.277Z,13.95
2023-02-19T23:08:43.799Z,11.65
2023-02-19T23:11:11.193Z,15.68
2023-02-19T23:13:38.146Z,14.30
2023-02-19T23:16:05.170Z,11.70
2023-02-19T23:18:32.126Z,10.57
2023-02-19T23:20:59.772Z,12.27
2023-02-19T23:23:27.821Z,9.85
2023-02-19T23:25:54.481Z,8.88
2023-02-19T23:28:21.154Z,10.10
2023-02-19T23:30:47.905Z,12.15
2023-02-19T23:33:14.862Z,11.70
2023-02-19T23:35:41.552Z,12.40
2023-02-19T23:38:08.487Z,14.07
2023-02-19T23:40:36.692Z,17.25
2023-02-19T23:43:03.570Z,13.23
2023-02-19T23:45:30.352Z,13.65
2023-02-19T23:47:57.183Z,14.65
2023-02-19T23:50:23.939Z,14.77
2023-02-19T23:52:50.786Z,12.48
2023-02-19T23:55:17.565Z,12.80
2023-02-19T23:57:45.635Z,10.23
